Vremea acum in Braila - Romania

Vrei sa afli care e starea vremii acum in Braila - Romania? Dorim sa iti furnizam starea vremii pentru Braila - Romania. Starea vremii Braila - Romania pentru astazi.

Vremea acum in Braila

Temperatura: 31 °C

Se simte ca: 29.9 °C
Innorat: 25 %
Precipitatii: 0 %
Presiune atmosferica: 1013 hPa
Umiditate: 29%
Vizibilitate: 10 km
Vantul bate din SE cu 13 km/h

Evolutia vremii in Braila pe ore

Ora: 16:00
Parțial noros
Temperatura: 30.5°C
Sansa de precipitatii: 0%
Ora Descriere Temp Se simte Precipitatii Umiditate Vant
00:00Parțial noros23.5°25.3°43%70%WNW 6.5 KM/H
01:00Ploi pe porţiuni în apropiere23.1°25.1°22%73%NW 7.9 KM/H
02:00Parțial noros22.6°24.8°0%76%NW 9.4 KM/H
03:00Parțial noros22.2°24.6°0%78%SW 10.1 KM/H
04:00Parțial noros21.9°21.9°0%80%ESE 11.2 KM/H
05:00Parțial noros21.5°21.5°0%82%N 11.9 KM/H
06:00Parțial noros23.1°25.3°0%73%NNE 12.6 KM/H
07:00Parțial noros24.7°26.2°0%64%NNE 13 KM/H
08:00Parțial noros26.3°27.2°0%54%NE 13.7 KM/H
09:00Parțial noros27.7°28.3°0%50%NE 14.8 KM/H
10:00Parțial noros29°29.5°0%45%NE 15.8 KM/H
11:00Parțial noros30.4°30.6°0%40%NE 16.9 KM/H
12:00Parțial noros30.8°30.9°0%38%NE 16.2 KM/H
13:00Parțial noros31.1°31.1°0%37%NE 15.5 KM/H
14:00Parțial noros31.5°31.4°0%36%NE 14.8 KM/H
15:00Parțial noros31°31.1°0%38%NE 14.8 KM/H
16:00Parțial noros30.5°30.9°0%41%NNE 14.4 KM/H
17:00Parțial noros30°30.6°0%44%NNE 14.4 KM/H
18:00Parțial noros28.5°29.2°0%47%ENE 11.9 KM/H
19:00Parțial noros27°27.7°0%49%ESE 9.4 KM/H
20:00Parțial noros25.5°26.3°0%52%SSE 6.8 KM/H
21:00Parțial noros25.5°26.2°0%50%ESE 6.1 KM/H
22:00Parțial noros25.4°26.1°0%49%ENE 5.4 KM/H
23:00Parțial noros25.4°26°0%47%N 4.7 KM/H